sensor_id;sensor_type;location;lat;lon;timestamp;pressure;altitude;pressure_sealevel;temperature;humidity
20145;BME280;10233;50.814;6.590;2023-07-31T00:01:14;99898.31;;;17.89;100.00
20145;BME280;10233;50.814;6.590;2023-07-31T00:02:15;99881.13;;;17.90;100.00
20145;BME280;10233;50.814;6.590;2023-07-31T00:03:15;99888.94;;;17.97;100.00
20145;BME280;10233;50.814;6.590;2023-07-31T00:04:16;99888.16;;;17.96;100.00
20145;BME280;10233;50.814;6.590;2023-07-31T00:05:16;99898.41;;;18.04;100.00
20145;BME280;10233;50.814;6.590;2023-07-31T00:06:17;99892.22;;;17.99;100.00
20145;BME280;10233;50.814;6.590;2023-07-31T00:07:17;99887.34;;;17.96;100.00
20145;BME280;10233;50.814;6.590;2023-07-31T00:08:18;99895.69;;;17.99;100.00
20145;BME280;10233;50.814;6.590;2023-07-31T00:09:18;99886.84;;;17.99;100.00
20145;BME280;10233;50.814;6.590;2023-07-31T00:10:19;99888.94;;;17.97;100.00
20145;BME280;10233;50.814;6.590;2023-07-31T00:11:19;99891.91;;;17.95;100.00
20145;BME280;10233;50.814;6.590;2023-07-31T00:12:20;99898.34;;;17.94;100.00
20145;BME280;10233;50.814;6.590;2023-07-31T00:13:20;99894.03;;;17.93;100.00
20145;BME280;10233;50.814;6.590;2023-07-31T00:14:21;99897.56;;;17.94;100.00
20145;BME280;10233;50.814;6.590;2023-07-31T00:15:21;99891.91;;;17.95;100.00
20145;BME280;10233;50.814;6.590;2023-07-31T00:16:22;99897.56;;;17.94;100.00
20145;BME280;10233;50.814;6.590;2023-07-31T00:17:22;99892.97;;;17.94;100.00
20145;BME280;10233;50.814;6.590;2023-07-31T00:18:23;99887.88;;;17.93;100.00
20145;BME280;10233;50.814;6.590;2023-07-31T00:19:23;99888.13;;;17.91;100.00
20145;BME280;10233;50.814;6.590;2023-07-31T00:20:24;99898.31;;;17.89;100.00
20145;BME280;10233;50.814;6.590;2023-07-31T00:21:24;99885.94;;;17.88;100.00
20145;BME280;10233;50.814;6.590;2023-07-31T00:22:25;99894.28;;;17.92;100.00
20145;BME280;10233;50.814;6.590;2023-07-31T00:23:25;99895.13;;;17.92;100.00
20145;BME280;10233;50.814;6.590;2023-07-31T00:24:26;99891.88;;;17.90;100.00
20145;BME280;10233;50.814;6.590;2023-07-31T00:25:26;99890.00;;;17.91;100.00
20145;BME280;10233;50.814;6.590;2023-07-31T00:26:27;99891.31;;;17.88;100.00
20145;BME280;10233;50.814;6.590;2023-07-31T00:27:27;99894.00;;;17.88;100.00
20145;BME280;10233;50.814;6.590;2023-07-31T00:28:28;99888.63;;;17.88;100.00
20145;BME280;10233;50.814;6.590;2023-07-31T00:29:29;99892.69;;;17.91;100.00
20145;BME280;10233;50.814;6.590;2023-07-31T00:30:31;99893.47;;;17.86;100.00
20145;BME280;10233;50.814;6.590;2023-07-31T00:31:32;99895.09;;;17.87;100.00
20145;BME280;10233;50.814;6.590;2023-07-31T00:32:32;99897.78;;;17.87;100.00
20145;BME280;10233;50.814;6.590;2023-07-31T00:33:34;99895.09;;;17.87;100.00
20145;BME280;10233;50.814;6.590;2023-07-31T00:34:37;99901.28;;;17.88;100.00
20145;BME280;10233;50.814;6.590;2023-07-31T00:35:38;99890.78;;;17.86;100.00
20145;BME280;10233;50.814;6.590;2023-07-31T00:36:38;99902.91;;;17.89;100.00
20145;BME280;10233;50.814;6.590;2023-07-31T00:37:38;99900.47;;;17.87;100.00
20145;BME280;10233;50.814;6.590;2023-07-31T00:38:39;99901.53;;;17.86;100.00
20145;BME280;10233;50.814;6.590;2023-07-31T00:39:40;99901.53;;;17.86;100.00
20145;BME280;10233;50.814;6.590;2023-07-31T00:40:41;99895.09;;;17.87;100.00
20145;BME280;10233;50.814;6.590;2023-07-31T00:41:41;99898.84;;;17.86;100.00
20145;BME280;10233;50.814;6.590;2023-07-31T00:42:42;99895.38;;;17.91;100.00
20145;BME280;10233;50.814;6.590;2023-07-31T00:43:42;99901.00;;;17.89;100.00
20145;BME280;10233;50.814;6.590;2023-07-31T00:44:43;99898.31;;;17.89;100.00
20145;BME280;10233;50.814;6.590;2023-07-31T00:45:43;99894.56;;;17.90;100.00
20145;BME280;10233;50.814;6.590;2023-07-31T00:46:45;99899.97;;;17.90;100.00
20145;BME280;10233;50.814;6.590;2023-07-31T00:47:46;99897.28;;;17.90;100.00
20145;BME280;10233;50.814;6.590;2023-07-31T00:48:46;99897.81;;;17.92;100.00
20145;BME280;10233;50.814;6.590;2023-07-31T00:49:47;99890.56;;;17.93;100.00
20145;BME280;10233;50.814;6.590;2023-07-31T00:50:48;99892.44;;;17.92;100.00
20145;BME280;10233;50.814;6.590;2023-07-31T00:51:49;99885.69;;;17.90;100.00
20145;BME280;10233;50.814;6.590;2023-07-31T00:52:49;99887.34;;;17.96;100.00
20145;BME280;10233;50.814;6.590;2023-07-31T00:53:52;99891.63;;;17.97;100.00
20145;BME280;10233;50.814;6.590;2023-07-31T00:54:54;99891.91;;;17.95;100.00
20145;BME280;10233;50.814;6.590;2023-07-31T00:55:55;99889.22;;;17.95;100.00
20145;BME280;10233;50.814;6.590;2023-07-31T00:56:56;99885.19;;;17.93;100.00
20145;BME280;10233;50.814;6.590;2023-07-31T00:57:56;99886.22;;;17.92;100.00
20145;BME280;10233;50.814;6.590;2023-07-31T00:58:57;99880.84;;;17.92;100.00
20145;BME280;10233;50.814;6.590;2023-07-31T00:59:57;99883.28;;;17.93;100.00
20145;BME280;10233;50.814;6.590;2023-07-31T01:00:58;99876.03;;;17.94;100.00
20145;BME280;10233;50.814;6.590;2023-07-31T01:01:59;99885.44;;;17.91;100.00
20145;BME280;10233;50.814;6.590;2023-07-31T01:03:00;99874.66;;;17.91;100.00
20145;BME280;10233;50.814;6.590;2023-07-31T01:04:01;99873.88;;;17.96;100.00
20145;BME280;10233;50.814;6.590;2023-07-31T01:05:03;99882.50;;;17.93;100.00
20145;BME280;10233;50.814;6.590;2023-07-31T01:10:11;99868.72;;;17.89;100.00
20145;BME280;10233;50.814;6.590;2023-07-31T01:11:19;99867.66;;;17.90;100.00
20145;BME280;10233;50.814;6.590;2023-07-31T01:12:20;99871.16;;;17.91;100.00
20145;BME280;10233;50.814;6.590;2023-07-31T01:13:21;99875.75;;;17.90;100.00
20145;BME280;10233;50.814;6.590;2023-07-31T01:14:21;99867.97;;;17.94;100.00
20145;BME280;10233;50.814;6.590;2023-07-31T01:15:23;99863.91;;;17.91;100.00
20145;BME280;10233;50.814;6.590;2023-07-31T01:16:24;99866.34;;;17.93;100.00
20145;BME280;10233;50.814;6.590;2023-07-31T01:17:25;99859.31;;;17.92;100.00
20145;BME280;10233;50.814;6.590;2023-07-31T01:18:25;99865.00;;;17.95;100.00
20145;BME280;10233;50.814;6.590;2023-07-31T01:19:27;99859.09;;;17.98;100.00
20145;BME280;10233;50.814;6.590;2023-07-31T01:20:29;99855.84;;;17.91;100.00
20145;BME280;10233;50.814;6.590;2023-07-31T01:21:57;99866.34;;;17.93;100.00
20145;BME280;10233;50.814;6.590;2023-07-31T01:23:22;99853.66;;;17.88;100.00
20145;BME280;10233;50.814;6.590;2023-07-31T01:27:14;99862.25;;;17.85;100.00
20145;BME280;10233;50.814;6.590;2023-07-31T01:28:20;99857.19;;;17.94;100.00
20145;BME280;10233;50.814;6.590;2023-07-31T01:29:49;99856.38;;;17.93;100.00
20145;BME280;10233;50.814;6.590;2023-07-31T01:30:55;99853.69;;;17.93;100.00
20145;BME280;10233;50.814;6.590;2023-07-31T01:32:01;99851.00;;;17.93;100.00
20145;BME280;10233;50.814;6.590;2023-07-31T01:33:03;99852.59;;;17.94;100.00
20145;BME280;10233;50.814;6.590;2023-07-31T01:34:08;99848.31;;;17.93;100.00
20145;BME280;10233;50.814;6.590;2023-07-31T01:35:10;99854.75;;;17.92;100.00
20145;BME280;10233;50.814;6.590;2023-07-31T01:36:11;99849.13;;;17.94;100.00
20145;BME280;10233;50.814;6.590;2023-07-31T01:37:11;99845.34;;;17.95;100.00
20145;BME280;10233;50.814;6.590;2023-07-31T01:38:12;99846.72;;;17.97;100.00
20145;BME280;10233;50.814;6.590;2023-07-31T01:39:12;99845.91;;;17.97;100.00
20145;BME280;10233;50.814;6.590;2023-07-31T01:40:13;99841.31;;;17.92;100.00
20145;BME280;10233;50.814;6.590;2023-07-31T01:41:13;99845.09;;;17.96;100.00
20145;BME280;10233;50.814;6.590;2023-07-31T01:42:16;99844.00;;;17.92;100.00
20145;BME280;10233;50.814;6.590;2023-07-31T01:43:17;99837.03;;;17.96;100.00
20145;BME280;10233;50.814;6.590;2023-07-31T01:44:18;99845.38;;;18.00;100.00
20145;BME280;10233;50.814;6.590;2023-07-31T01:45:18;99845.66;;;17.98;100.00
20145;BME280;10233;50.814;6.590;2023-07-31T01:46:20;99841.34;;;17.97;100.00
20145;BME280;10233;50.814;6.590;2023-07-31T01:47:21;99843.78;;;17.99;100.00
20145;BME280;10233;50.814;6.590;2023-07-31T01:48:21;99839.19;;;17.99;100.00
20145;BME280;10233;50.814;6.590;2023-07-31T01:49:21;99835.44;;;18.00;100.00
20145;BME280;10233;50.814;6.590;2023-07-31T01:50:22;99840.50;;;17.97;100.00
20145;BME280;10233;50.814;6.590;2023-07-31T01:51:22;99834.84;;;17.93;100.00
20145;BME280;10233;50.814;6.590;2023-07-31T01:52:23;99838.91;;;17.96;100.00
20145;BME280;10233;50.814;6.590;2023-07-31T01:53:23;99828.72;;;17.98;100.00
20145;BME280;10233;50.814;6.590;2023-07-31T01:54:24;99844.28;;;17.96;100.00
20145;BME280;10233;50.814;6.590;2023-07-31T01:55:24;99836.47;;;17.94;100.00
20145;BME280;10233;50.814;6.590;2023-07-31T01:56:25;99834.63;;;18.00;100.00
20145;BME280;10233;50.814;6.590;2023-07-31T01:57:25;99834.63;;;18.00;100.00
20145;BME280;10233;50.814;6.590;2023-07-31T01:58:26;99836.50;;;17.99;100.00
20145;BME280;10233;50.814;6.590;2023-07-31T01:59:26;99830.59;;;18.02;100.00
20145;BME280;10233;50.814;6.590;2023-07-31T02:00:27;99829.03;;;18.06;100.00
20145;BME280;10233;50.814;6.590;2023-07-31T02:01:28;99818.25;;;18.06;100.00
20145;BME280;10233;50.814;6.590;2023-07-31T02:02:28;99831.16;;;18.09;100.00
20145;BME280;10233;50.814;6.590;2023-07-31T02:03:29;99837.09;;;18.06;100.00
20145;BME280;10233;50.814;6.590;2023-07-31T02:04:29;99830.91;;;18.11;100.00
20145;BME280;10233;50.814;6.590;2023-07-31T02:05:30;99837.38;;;18.10;100.00
20145;BME280;10233;50.814;6.590;2023-07-31T02:06:30;99829.59;;;18.13;100.00
20145;BME280;10233;50.814;6.590;2023-07-31T02:07:31;99835.78;;;18.14;100.00
20145;BME280;10233;50.814;6.590;2023-07-31T02:08:31;99825.84;;;18.14;100.00
20145;BME280;10233;50.814;6.590;2023-07-31T02:09:31;99829.06;;;18.16;100.00
20145;BME280;10233;50.814;6.590;2023-07-31T02:10:33;99822.63;;;18.17;100.00
20145;BME280;10233;50.814;6.590;2023-07-31T02:11:33;99819.91;;;18.17;100.00
20145;BME280;10233;50.814;6.590;2023-07-31T02:12:34;99823.19;;;18.19;100.00
20145;BME280;10233;50.814;6.590;2023-07-31T02:13:36;99822.13;;;18.25;100.00
20145;BME280;10233;50.814;6.590;2023-07-31T02:14:36;99815.63;;;18.21;100.00
20145;BME280;10233;50.814;6.590;2023-07-31T02:15:37;99816.72;;;18.20;100.00
20145;BME280;10233;50.814;6.590;2023-07-31T02:16:37;99820.50;;;18.19;100.00
20145;BME280;10233;50.814;6.590;2023-07-31T02:17:37;99816.16;;;18.18;100.00
20145;BME280;10233;50.814;6.590;2023-07-31T02:18:38;99823.44;;;18.18;100.00
20145;BME280;10233;50.814;6.590;2023-07-31T02:19:38;99814.53;;;18.17;100.00
20145;BME280;10233;50.814;6.590;2023-07-31T02:20:39;99809.19;;;18.22;100.00
20145;BME280;10233;50.814;6.590;2023-07-31T02:21:39;99812.94;;;18.21;100.00
20145;BME280;10233;50.814;6.590;2023-07-31T02:22:40;99814.03;;;18.20;100.00
20145;BME280;10233;50.814;6.590;2023-07-31T02:23:41;99811.06;;;18.22;100.00
20145;BME280;10233;50.814;6.590;2023-07-31T02:24:42;99812.94;;;18.21;100.00
20145;BME280;10233;50.814;6.590;2023-07-31T02:25:42;99813.78;;;18.27;100.00
20145;BME280;10233;50.814;6.590;2023-07-31T02:26:43;99814.31;;;18.29;100.00
20145;BME280;10233;50.814;6.590;2023-07-31T02:27:43;99818.63;;;18.30;100.00
20145;BME280;10233;50.814;6.590;2023-07-31T02:28:44;99815.91;;;18.25;100.00
20145;BME280;10233;50.814;6.590;2023-07-31T02:29:46;99813.78;;;18.27;100.00
20145;BME280;10233;50.814;6.590;2023-07-31T02:30:46;99811.34;;;18.25;100.00
20145;BME280;10233;50.814;6.590;2023-07-31T02:31:47;99805.44;;;18.28;100.00
20145;BME280;10233;50.814;6.590;2023-07-31T02:32:47;99805.44;;;18.28;100.00
20145;BME280;10233;50.814;6.590;2023-07-31T02:33:48;99809.19;;;18.22;100.00
20145;BME280;10233;50.814;6.590;2023-07-31T02:34:48;99799.25;;;18.28;100.00
20145;BME280;10233;50.814;6.590;2023-07-31T02:35:49;99804.63;;;18.23;100.00
20145;BME280;10233;50.814;6.590;2023-07-31T02:36:49;99804.88;;;18.21;100.00
20145;BME280;10233;50.814;6.590;2023-07-31T02:37:50;99803.78;;;18.22;100.00
20145;BME280;10233;50.814;6.590;2023-07-31T02:38:50;99802.72;;;18.23;100.00
20145;BME280;10233;50.814;6.590;2023-07-31T02:39:50;99797.66;;;18.27;100.00
20145;BME280;10233;50.814;6.590;2023-07-31T02:40:51;99800.34;;;18.32;100.00
20145;BME280;10233;50.814;6.590;2023-07-31T02:41:51;99805.72;;;18.27;100.00
20145;BME280;10233;50.814;6.590;2023-07-31T02:42:52;99811.34;;;18.25;100.00
20145;BME280;10233;50.814;6.590;2023-07-31T02:43:52;99802.19;;;18.21;100.00
20145;BME280;10233;50.814;6.590;2023-07-31T02:44:54;99808.66;;;18.20;100.00
20145;BME280;10233;50.814;6.590;2023-07-31T02:45:56;99800.56;;;18.20;100.00
20145;BME280;10233;50.814;6.590;2023-07-31T02:46:58;99801.66;;;18.19;100.00
20145;BME280;10233;50.814;6.590;2023-07-31T02:47:58;99803.78;;;18.17;100.00
20145;BME280;10233;50.814;6.590;2023-07-31T02:48:58;99807.31;;;18.23;100.00
20145;BME280;10233;50.814;6.590;2023-07-31T02:49:59;99812.94;;;18.21;100.00
20145;BME280;10233;50.814;6.590;2023-07-31T02:51:00;99804.34;;;18.19;100.00
20145;BME280;10233;50.814;6.590;2023-07-31T02:52:00;99799.50;;;18.21;100.00
20145;BME280;10233;50.814;6.590;2023-07-31T02:53:01;99803.78;;;18.22;100.00
20145;BME280;10233;50.814;6.590;2023-07-31T02:54:01;99796.78;;;18.21;100.00
20145;BME280;10233;50.814;6.590;2023-07-31T02:55:02;99808.41;;;18.27;100.00
20145;BME280;10233;50.814;6.590;2023-07-31T02:56:02;99796.56;;;18.28;100.00
20145;BME280;10233;50.814;6.590;2023-07-31T02:57:03;99793.03;;;18.27;100.00
20145;BME280;10233;50.814;6.590;2023-07-31T02:58:04;99790.63;;;18.26;100.00
20145;BME280;10233;50.814;6.590;2023-07-31T02:59:04;99793.03;;;18.27;100.00
20145;BME280;10233;50.814;6.590;2023-07-31T03:00:05;99792.78;;;18.29;100.00
20145;BME280;10233;50.814;6.590;2023-07-31T03:01:06;99790.91;;;18.29;100.00
20145;BME280;10233;50.814;6.590;2023-07-31T03:02:07;99790.41;;;18.32;100.00
20145;BME280;10233;50.814;6.590;2023-07-31T03:03:07;99792.25;;;18.27;100.00
20145;BME280;10233;50.814;6.590;2023-07-31T03:04:08;99789.84;;;18.30;100.00
20145;BME280;10233;50.814;6.590;2023-07-31T03:05:08;99786.06;;;18.26;100.00
20145;BME280;10233;50.814;6.590;2023-07-31T03:06:09;99789.28;;;18.28;100.00
20145;BME280;10233;50.814;6.590;2023-07-31T03:07:10;99790.34;;;18.27;100.00
20145;BME280;10233;50.814;6.590;2023-07-31T03:08:11;99791.44;;;18.26;100.00
20145;BME280;10233;50.814;6.590;2023-07-31T03:09:11;99780.94;;;18.25;100.00
20145;BME280;10233;50.814;6.590;2023-07-31T03:10:12;99782.25;;;18.22;100.00
20145;BME280;10233;50.814;6.590;2023-07-31T03:11:13;99789.00;;;18.25;100.00
20145;BME280;10233;50.814;6.590;2023-07-31T03:12:13;99785.53;;;18.29;100.00
20145;BME280;10233;50.814;6.590;2023-07-31T03:13:14;99788.22;;;18.24;100.00
20145;BME280;10233;50.814;6.590;2023-07-31T03:14:14;99785.22;;;18.26;100.00
20145;BME280;10233;50.814;6.590;2023-07-31T03:15:15;99782.84;;;18.29;100.00
20145;BME280;10233;50.814;6.590;2023-07-31T03:16:15;99783.09;;;18.28;100.00
20145;BME280;10233;50.814;6.590;2023-07-31T03:17:16;99787.66;;;18.27;100.00
20145;BME280;10233;50.814;6.590;2023-07-31T03:18:16;99782.28;;;18.27;100.00
20145;BME280;10233;50.814;6.590;2023-07-31T03:19:17;99783.88;;;18.28;100.00
20145;BME280;10233;50.814;6.590;2023-07-31T03:20:17;99777.97;;;18.26;100.00
20145;BME280;10233;50.814;6.590;2023-07-31T03:21:17;99780.16;;;18.29;100.00
20145;BME280;10233;50.814;6.590;2023-07-31T03:22:18;99776.91;;;18.27;100.00
20145;BME280;10233;50.814;6.590;2023-07-31T03:23:18;99773.94;;;18.29;100.00
20145;BME280;10233;50.814;6.590;2023-07-31T03:24:19;99775.81;;;18.28;100.00
20145;BME280;10233;50.814;6.590;2023-07-31T03:25:19;99771.56;;;18.32;100.00
20145;BME280;10233;50.814;6.590;2023-07-31T03:26:20;99780.94;;;18.30;100.00
20145;BME280;10233;50.814;6.590;2023-07-31T03:27:20;99778.50;;;18.28;100.00
20145;BME280;10233;50.814;6.590;2023-07-31T03:28:21;99770.97;;;18.25;100.00
20145;BME280;10233;50.814;6.590;2023-07-31T03:29:21;99774.25;;;18.32;100.00
20145;BME280;10233;50.814;6.590;2023-07-31T03:30:22;99774.47;;;18.31;100.00
20145;BME280;10233;50.814;6.590;2023-07-31T03:31:22;99767.75;;;18.28;100.00
20145;BME280;10233;50.814;6.590;2023-07-31T03:32:23;99766.94;;;18.28;100.00
20145;BME280;10233;50.814;6.590;2023-07-31T03:33:23;99770.75;;;18.32;100.00
20145;BME280;10233;50.814;6.590;2023-07-31T03:34:25;99765.66;;;18.35;100.00
20145;BME280;10233;50.814;6.590;2023-07-31T03:35:25;99775.59;;;18.35;100.00
20145;BME280;10233;50.814;6.590;2023-07-31T03:36:25;99761.34;;;18.34;100.00
20145;BME280;10233;50.814;6.590;2023-07-31T03:37:27;99765.63;;;18.30;100.00
20145;BME280;10233;50.814;6.590;2023-07-31T03:38:29;99764.84;;;18.40;100.00
20145;BME280;10233;50.814;6.590;2023-07-31T03:39:29;99766.19;;;18.37;100.00
20145;BME280;10233;50.814;6.590;2023-07-31T03:40:30;99766.19;;;18.32;100.00
20145;BME280;10233;50.814;6.590;2023-07-31T03:41:30;99764.03;;;18.34;100.00
20145;BME280;10233;50.814;6.590;2023-07-31T03:42:31;99759.19;;;18.36;100.00
20145;BME280;10233;50.814;6.590;2023-07-31T03:43:32;99760.00;;;18.37;100.00
20145;BME280;10233;50.814;6.590;2023-07-31T03:44:33;99765.09;;;18.33;100.00
20145;BME280;10233;50.814;6.590;2023-07-31T03:45:34;99754.84;;;18.30;100.00
20145;BME280;10233;50.814;6.590;2023-07-31T03:46:35;99755.41;;;18.32;100.00
20145;BME280;10233;50.814;6.590;2023-07-31T03:47:36;99750.84;;;18.33;100.00
20145;BME280;10233;50.814;6.590;2023-07-31T03:48:37;99753.28;;;18.39;100.00
20145;BME280;10233;50.814;6.590;2023-07-31T03:49:38;99749.25;;;18.37;100.00
20145;BME280;10233;50.814;6.590;2023-07-31T03:50:38;99745.19;;;18.34;100.00
20145;BME280;10233;50.814;6.590;2023-07-31T03:51:38;99742.50;;;18.34;100.00
20145;BME280;10233;50.814;6.590;2023-07-31T03:52:41;99746.00;;;18.40;100.00
20145;BME280;10233;50.814;6.590;2023-07-31T03:53:42;99739.28;;;18.37;100.00
20145;BME280;10233;50.814;6.590;2023-07-31T03:54:42;99743.88;;;18.37;100.00
20145;BME280;10233;50.814;6.590;2023-07-31T03:55:44;99741.44;;;18.40;100.00
20145;BME280;10233;50.814;6.590;2023-07-31T03:56:45;99740.88;;;18.38;100.00
20145;BME280;10233;50.814;6.590;2023-07-31T03:57:45;99730.13;;;18.38;100.00
20145;BME280;10233;50.814;6.590;2023-07-31T03:58:46;99737.66;;;18.36;100.00
20145;BME280;10233;50.814;6.590;2023-07-31T03:59:46;99740.59;;;18.35;100.00
20145;BME280;10233;50.814;6.590;2023-07-31T04:00:46;99737.66;;;18.36;100.00
20145;BME280;10233;50.814;6.590;2023-07-31T04:01:47;99744.13;;;18.40;100.00
20145;BME280;10233;50.814;6.590;2023-07-31T04:02:47;99744.94;;;18.41;100.00
20145;BME280;10233;50.814;6.590;2023-07-31T04:03:48;99744.66;;;18.37;100.00
20145;BME280;10233;50.814;6.590;2023-07-31T04:04:48;99740.88;;;18.38;100.00
20145;BME280;10233;50.814;6.590;2023-07-31T04:05:49;99742.53;;;18.44;100.00
20145;BME280;10233;50.814;6.590;2023-07-31T04:06:49;99745.22;;;18.44;100.00
20145;BME280;10233;50.814;6.590;2023-07-31T04:07:50;99740.09;;;18.38;100.00
20145;BME280;10233;50.814;6.590;2023-07-31T04:08:50;99736.56;;;18.37;100.00
20145;BME280;10233;50.814;6.590;2023-07-31T04:09:51;99739.28;;;18.37;100.00
20145;BME280;10233;50.814;6.590;2023-07-31T04:10:51;99740.09;;;18.38;100.00
20145;BME280;10233;50.814;6.590;2023-07-31T04:11:51;99739.84;;;18.39;100.00
20145;BME280;10233;50.814;6.590;2023-07-31T04:12:52;99735.78;;;18.37;100.00
20145;BME280;10233;50.814;6.590;2023-07-31T04:13:52;99733.63;;;18.39;100.00
20145;BME280;10233;50.814;6.590;2023-07-31T04:14:53;99728.78;;;18.41;100.00
20145;BME280;10233;50.814;6.590;2023-07-31T04:15:53;99731.75;;;18.39;100.00
20145;BME280;10233;50.814;6.590;2023-07-31T04:16:54;99734.97;;;18.41;100.00
20145;BME280;10233;50.814;6.590;2023-07-31T04:17:55;99722.59;;;18.40;100.00
20145;BME280;10233;50.814;6.590;2023-07-31T04:18:55;99730.69;;;18.40;100.00
20145;BME280;10233;50.814;6.590;2023-07-31T04:19:56;99724.75;;;18.43;100.00
20145;BME280;10233;50.814;6.590;2023-07-31T04:20:57;99724.75;;;18.43;100.00
20145;BME280;10233;50.814;6.590;2023-07-31T04:21:58;99725.31;;;18.45;100.00
20145;BME280;10233;50.814;6.590;2023-07-31T04:22:59;99725.31;;;18.45;100.00
20145;BME280;10233;50.814;6.590;2023-07-31T04:23:59;99726.63;;;18.43;100.00
20145;BME280;10233;50.814;6.590;2023-07-31T04:24:59;99724.47;;;18.45;100.00
20145;BME280;10233;50.814;6.590;2023-07-31T04:26:00;99721.25;;;18.43;100.00
20145;BME280;10233;50.814;6.590;2023-07-31T04:27:00;99722.59;;;18.45;100.00
20145;BME280;10233;50.814;6.590;2023-07-31T04:28:01;99724.75;;;18.48;100.00
20145;BME280;10233;50.814;6.590;2023-07-31T04:29:02;99725.56;;;18.49;100.00
20145;BME280;10233;50.814;6.590;2023-07-31T04:30:03;99716.16;;;18.46;100.00
20145;BME280;10233;50.814;6.590;2023-07-31T04:31:04;99715.63;;;18.49;100.00
20145;BME280;10233;50.814;6.590;2023-07-31T04:32:04;99722.88;;;18.54;100.00
20145;BME280;10233;50.814;6.590;2023-07-31T04:33:05;99725.31;;;18.50;100.00
20145;BME280;10233;50.814;6.590;2023-07-31T04:34:05;99721.00;;;18.54;100.00
20145;BME280;10233;50.814;6.590;2023-07-31T04:35:06;99725.03;;;18.47;100.00
20145;BME280;10233;50.814;6.590;2023-07-31T04:36:07;99721.81;;;18.50;100.00
20145;BME280;10233;50.814;6.590;2023-07-31T04:37:07;99715.91;;;18.53;100.00
20145;BME280;10233;50.814;6.590;2023-07-31T04:38:08;99718.03;;;18.51;100.00
20145;BME280;10233;50.814;6.590;2023-07-31T04:39:08;99722.88;;;18.54;100.00
20145;BME280;10233;50.814;6.590;2023-07-31T04:40:09;99722.63;;;18.60;100.00
20145;BME280;10233;50.814;6.590;2023-07-31T04:41:09;99719.41;;;18.58;100.00
20145;BME280;10233;50.814;6.590;2023-07-31T04:42:10;99720.47;;;18.62;100.00
20145;BME280;10233;50.814;6.590;2023-07-31T04:43:10;99719.41;;;18.58;100.00
20145;BME280;10233;50.814;6.590;2023-07-31T04:44:11;99716.72;;;18.58;100.00
20145;BME280;10233;50.814;6.590;2023-07-31T04:45:11;99713.47;;;18.56;100.00
20145;BME280;10233;50.814;6.590;2023-07-31T04:46:12;99712.38;;;18.57;100.00
20145;BME280;10233;50.814;6.590;2023-07-31T04:47:12;99721.03;;;18.59;100.00
20145;BME280;10233;50.814;6.590;2023-07-31T04:48:13;99720.19;;;18.59;100.00
20145;BME280;10233;50.814;6.590;2023-07-31T04:49:13;99712.38;;;18.57;100.00
20145;BME280;10233;50.814;6.590;2023-07-31T04:50:14;99718.34;;;18.59;100.00
20145;BME280;10233;50.814;6.590;2023-07-31T04:51:14;99714.03;;;18.63;100.00
20145;BME280;10233;50.814;6.590;2023-07-31T04:52:15;99715.63;;;18.59;100.00
20145;BME280;10233;50.814;6.590;2023-07-31T04:53:15;99711.88;;;18.60;100.00
20145;BME280;10233;50.814;6.590;2023-07-31T04:54:15;99710.50;;;18.58;100.00
20145;BME280;10233;50.814;6.590;2023-07-31T04:55:16;99710.53;;;18.63;100.00
20145;BME280;10233;50.814;6.590;2023-07-31T04:56:16;99715.63;;;18.59;100.00
20145;BME280;10233;50.814;6.590;2023-07-31T04:57:17;99710.25;;;18.59;100.00
20145;BME280;10233;50.814;6.590;2023-07-31T04:58:17;99713.22;;;18.58;100.00
20145;BME280;10233;50.814;6.590;2023-07-31T04:59:18;99720.47;;;18.62;100.00
20145;BME280;10233;50.814;6.590;2023-07-31T05:00:18;99705.13;;;18.63;100.00
20145;BME280;10233;50.814;6.590;2023-07-31T05:01:19;99714.28;;;18.62;100.00
20145;BME280;10233;50.814;6.590;2023-07-31T05:02:19;99706.22;;;18.62;100.00
20145;BME280;10233;50.814;6.590;2023-07-31T05:03:20;99705.97;;;18.68;100.00
20145;BME280;10233;50.814;6.590;2023-07-31T05:04:20;99703.53;;;18.67;100.00
20145;BME280;10233;50.814;6.590;2023-07-31T05:05:21;99705.97;;;18.68;100.00
20145;BME280;10233;50.814;6.590;2023-07-31T05:06:21;99710.28;;;18.74;100.00
20145;BME280;10233;50.814;6.590;2023-07-31T05:07:22;99705.97;;;18.73;100.00
20145;BME280;10233;50.814;6.590;2023-07-31T05:08:22;99705.41;;;18.76;100.00
20145;BME280;10233;50.814;6.590;2023-07-31T05:09:23;99702.44;;;18.78;100.00
20145;BME280;10233;50.814;6.590;2023-07-31T05:10:23;99710.28;;;18.89;100.00
20145;BME280;10233;50.814;6.590;2023-07-31T05:11:23;99695.47;;;18.87;100.00
20145;BME280;10233;50.814;6.590;2023-07-31T05:12:24;99704.63;;;18.91;100.00
20145;BME280;10233;50.814;6.590;2023-07-31T05:13:24;99701.09;;;18.90;100.00
20145;BME280;10233;50.814;6.590;2023-07-31T05:14:25;99703.81;;;18.85;100.00
20145;BME280;10233;50.814;6.590;2023-07-31T05:15:26;99698.41;;;18.85;100.00
20145;BME280;10233;50.814;6.590;2023-07-31T05:16:26;99692.22;;;18.95;100.00
20145;BME280;10233;50.814;6.590;2023-07-31T05:17:27;99697.63;;;18.95;100.00
20145;BME280;10233;50.814;6.590;2023-07-31T05:18:27;99700.03;;;18.86;100.00
20145;BME280;10233;50.814;6.590;2023-07-31T05:19:28;99703.28;;;18.93;100.00
20145;BME280;10233;50.814;6.590;2023-07-31T05:20:28;99697.31;;;18.91;100.00
20145;BME280;10233;50.814;6.590;2023-07-31T05:21:29;99689.25;;;18.91;100.00
20145;BME280;10233;50.814;6.590;2023-07-31T05:22:29;99693.03;;;18.95;100.00
20145;BME280;10233;50.814;6.590;2023-07-31T05:23:29;99682.81;;;18.97;100.00
20145;BME280;10233;50.814;6.590;2023-07-31T05:24:33;99686.28;;;18.98;100.00
20145;BME280;10233;50.814;6.590;2023-07-31T05:25:33;99689.81;;;18.93;100.00
20145;BME280;10233;50.814;6.590;2023-07-31T05:26:34;99690.31;;;18.90;100.00